createdAt,value
2019-01-26T00:00:46.993Z,3.96
2019-01-26T00:01:47.003Z,3.90
2019-01-26T00:02:47.007Z,3.90
2019-01-26T00:03:47.020Z,4.00
2019-01-26T00:04:47.026Z,3.93
2019-01-26T00:05:47.034Z,3.93
2019-01-26T00:06:47.049Z,4.04
2019-01-26T00:07:47.052Z,4.06
2019-01-26T00:08:47.062Z,4.04
2019-01-26T00:09:47.072Z,4.08
2019-01-26T00:10:47.077Z,4.04
2019-01-26T00:11:47.087Z,3.88
2019-01-26T00:12:47.096Z,4.05
2019-01-26T00:13:47.107Z,4.06
2019-01-26T00:14:47.113Z,4.06
2019-01-26T00:15:47.125Z,4.05
2019-01-26T00:16:47.132Z,4.05
2019-01-26T00:17:47.164Z,4.02
2019-01-26T00:18:47.148Z,4.05
2019-01-26T00:19:47.159Z,4.06
2019-01-26T00:20:47.184Z,4.09
2019-01-26T00:21:47.172Z,4.05
2019-01-26T00:22:47.184Z,4.00
2019-01-26T00:23:47.193Z,4.12
2019-01-26T00:24:47.204Z,4.04
2019-01-26T00:25:47.209Z,4.09
2019-01-26T00:26:47.222Z,4.11
2019-01-26T00:27:47.230Z,4.05
2019-01-26T00:28:47.242Z,4.18
2019-01-26T00:29:47.250Z,4.09
2019-01-26T00:30:47.256Z,4.14
2019-01-26T00:31:47.267Z,4.08
2019-01-26T00:32:47.278Z,4.05
2019-01-26T00:33:47.284Z,4.18
2019-01-26T00:34:47.294Z,4.24
2019-01-26T00:35:47.299Z,4.20
2019-01-26T00:36:47.309Z,4.20
2019-01-26T00:37:47.344Z,4.18
2019-01-26T00:38:47.324Z,4.24
2019-01-26T00:39:47.334Z,4.30
2019-01-26T00:40:47.342Z,4.33
2019-01-26T00:41:47.354Z,4.30
2019-01-26T00:42:47.362Z,4.30
2019-01-26T00:43:47.374Z,4.24
2019-01-26T00:44:47.381Z,4.27
2019-01-26T00:45:47.392Z,4.33
2019-01-26T00:46:47.396Z,4.26
2019-01-26T00:47:47.412Z,4.36
2019-01-26T00:48:47.416Z,4.41
2019-01-26T00:49:47.427Z,4.41
2019-01-26T00:50:47.434Z,4.40
2019-01-26T00:51:47.446Z,4.41
2019-01-26T00:52:47.454Z,4.40
2019-01-26T00:53:47.461Z,4.42
2019-01-26T00:54:47.473Z,4.47
2019-01-26T00:55:47.498Z,4.54
2019-01-26T00:56:47.489Z,4.52
2019-01-26T00:57:47.497Z,4.60
2019-01-26T00:58:47.504Z,4.67
2019-01-26T00:59:47.517Z,4.58
2019-01-26T01:00:47.527Z,4.51
2019-01-26T01:01:47.533Z,4.47
2019-01-26T01:02:47.546Z,4.50
2019-01-26T01:03:47.553Z,4.51
2019-01-26T01:04:47.559Z,4.51
2019-01-26T01:05:47.570Z,4.52
2019-01-26T01:06:47.582Z,4.52
2019-01-26T01:07:47.599Z,4.50
2019-01-26T01:08:47.601Z,4.58
2019-01-26T01:09:47.675Z,4.62
2019-01-26T01:10:47.617Z,4.63
2019-01-26T01:11:47.625Z,4.67
2019-01-26T01:12:47.632Z,4.72
2019-01-26T01:13:47.641Z,4.67
2019-01-26T01:14:47.656Z,4.73
2019-01-26T01:15:47.659Z,4.67
2019-01-26T01:16:47.670Z,4.70
2019-01-26T01:17:47.683Z,4.72
2019-01-26T01:18:47.732Z,4.72
2019-01-26T01:19:47.702Z,4.70
2019-01-26T01:20:47.737Z,4.77
2019-01-26T01:21:47.738Z,4.72
2019-01-26T01:22:47.726Z,4.85
2019-01-26T01:23:47.739Z,4.84
2019-01-26T01:24:47.739Z,4.72
2019-01-26T01:25:47.743Z,4.85
2019-01-26T01:26:47.754Z,4.77
2019-01-26T01:27:47.762Z,4.73
2019-01-26T01:28:47.769Z,4.77
2019-01-26T01:29:47.787Z,4.73
2019-01-26T01:30:47.791Z,4.91
2019-01-26T01:31:47.799Z,4.82
2019-01-26T01:32:47.809Z,4.82
2019-01-26T01:33:47.819Z,4.86
2019-01-26T01:34:47.839Z,4.85
2019-01-26T01:35:47.841Z,4.96
2019-01-26T01:36:47.844Z,4.86
2019-01-26T01:37:47.851Z,4.85
2019-01-26T01:38:47.862Z,4.86
2019-01-26T01:39:47.871Z,4.77
2019-01-26T01:40:47.886Z,4.80
2019-01-26T01:41:47.889Z,4.85
2019-01-26T01:42:47.901Z,4.85
2019-01-26T01:43:47.910Z,4.78
2019-01-26T01:44:47.920Z,4.85
2019-01-26T01:45:47.928Z,4.88
2019-01-26T01:46:47.939Z,4.84
2019-01-26T01:47:47.999Z,4.91
2019-01-26T01:48:47.956Z,4.99
2019-01-26T01:49:47.976Z,4.89
2019-01-26T01:50:47.976Z,4.99
2019-01-26T01:51:47.987Z,5.02
2019-01-26T01:52:47.995Z,4.99
2019-01-26T01:53:48.020Z,4.97
2019-01-26T01:54:48.012Z,4.96
2019-01-26T01:55:48.027Z,4.94
2019-01-26T01:56:48.029Z,4.91
2019-01-26T01:57:48.039Z,4.88
2019-01-26T01:58:48.050Z,4.97
2019-01-26T01:59:48.065Z,5.00
2019-01-26T02:00:48.070Z,4.88
2019-01-26T02:01:48.077Z,5.00
2019-01-26T02:02:48.129Z,4.94
2019-01-26T02:03:48.099Z,4.96
2019-01-26T02:04:48.107Z,4.91
2019-01-26T02:05:48.119Z,5.04
2019-01-26T02:06:48.124Z,5.04
2019-01-26T02:07:48.138Z,5.06
2019-01-26T02:08:48.143Z,5.00
2019-01-26T02:09:48.154Z,5.10
2019-01-26T02:10:48.163Z,5.10
2019-01-26T02:11:48.174Z,5.09
2019-01-26T02:12:48.182Z,5.04
2019-01-26T02:13:48.192Z,5.04
2019-01-26T02:14:48.204Z,5.03
2019-01-26T02:15:48.213Z,4.99
2019-01-26T02:16:50.147Z,5.04
2019-01-26T02:17:48.230Z,5.04
2019-01-26T02:18:48.250Z,5.00
2019-01-26T02:19:48.252Z,5.10
2019-01-26T02:20:48.264Z,5.03
2019-01-26T02:21:48.271Z,5.10
2019-01-26T02:22:48.283Z,5.04
2019-01-26T02:23:48.299Z,5.06
2019-01-26T02:24:48.299Z,5.09
2019-01-26T02:25:48.377Z,5.07
2019-01-26T02:26:48.318Z,5.07
2019-01-26T02:27:48.326Z,5.15
2019-01-26T02:28:48.337Z,5.15
2019-01-26T02:29:48.347Z,5.03
2019-01-26T02:30:48.355Z,5.07
2019-01-26T02:31:48.364Z,5.17
2019-01-26T02:32:48.376Z,5.12
2019-01-26T02:33:48.388Z,5.20
2019-01-26T02:34:48.391Z,5.18
2019-01-26T02:35:48.405Z,5.21
2019-01-26T02:36:48.412Z,5.20
2019-01-26T02:37:48.423Z,5.17
2019-01-26T02:38:48.450Z,5.18
2019-01-26T02:39:48.490Z,5.25
2019-01-26T02:40:48.449Z,5.28
2019-01-26T02:41:48.463Z,5.24
2019-01-26T02:42:48.477Z,5.31
2019-01-26T02:43:48.485Z,5.30
2019-01-26T02:44:48.526Z,5.28
2019-01-26T02:45:48.500Z,5.24
2019-01-26T02:46:48.511Z,5.28
2019-01-26T02:47:48.523Z,5.22
2019-01-26T02:48:48.530Z,5.25
2019-01-26T02:49:48.540Z,5.30
2019-01-26T02:50:48.557Z,5.35
2019-01-26T02:51:48.557Z,5.21
2019-01-26T02:52:48.568Z,5.28
2019-01-26T02:53:48.577Z,5.28
2019-01-26T02:54:48.591Z,5.24
2019-01-26T02:55:48.748Z,5.31
2019-01-26T02:56:48.607Z,5.35
2019-01-26T02:57:48.621Z,5.31
2019-01-26T02:58:48.625Z,5.21
2019-01-26T02:59:48.635Z,5.28
2019-01-26T03:00:48.648Z,5.33
2019-01-26T03:01:48.656Z,5.33
2019-01-26T03:02:48.662Z,5.40
2019-01-26T03:03:48.676Z,5.43
2019-01-26T03:04:48.686Z,5.35
2019-01-26T03:05:48.693Z,5.38
2019-01-26T03:06:48.704Z,5.43
2019-01-26T03:07:48.716Z,5.42
2019-01-26T03:08:48.723Z,5.40
2019-01-26T03:09:48.732Z,5.49
2019-01-26T03:10:48.741Z,5.49
2019-01-26T03:11:48.754Z,5.49
2019-01-26T03:12:48.760Z,5.54
2019-01-26T03:13:48.772Z,5.46
2019-01-26T03:14:48.780Z,5.48
2019-01-26T03:15:48.797Z,5.48
2019-01-26T03:16:48.804Z,5.43
2019-01-26T03:17:48.816Z,5.42
2019-01-26T03:18:48.828Z,5.54
2019-01-26T03:19:48.832Z,5.42
2019-01-26T03:20:48.837Z,5.48
2019-01-26T03:21:48.851Z,5.48
2019-01-26T03:22:48.867Z,5.46
2019-01-26T03:23:48.869Z,5.49
2019-01-26T03:24:48.877Z,5.45
2019-01-26T03:25:48.889Z,5.46
2019-01-26T03:26:48.900Z,5.58
2019-01-26T03:27:48.908Z,5.68
2019-01-26T03:28:48.925Z,5.68
2019-01-26T03:29:48.928Z,5.64
2019-01-26T03:30:48.939Z,5.65
2019-01-26T03:31:48.952Z,5.65
2019-01-26T03:32:48.961Z,5.65
2019-01-26T03:33:48.964Z,5.76
2019-01-26T03:34:48.975Z,5.79
2019-01-26T03:35:48.986Z,5.74
2019-01-26T03:36:49.003Z,5.72
2019-01-26T03:37:49.012Z,5.74
2019-01-26T03:38:49.017Z,5.76
2019-01-26T03:39:49.026Z,5.67
2019-01-26T03:40:49.034Z,5.78
2019-01-26T03:41:49.050Z,5.74
2019-01-26T03:42:49.053Z,5.72
2019-01-26T03:43:49.073Z,5.71
2019-01-26T03:44:49.076Z,5.78
2019-01-26T03:45:49.083Z,5.72
2019-01-26T03:46:49.097Z,5.83
2019-01-26T03:47:49.110Z,5.90
2019-01-26T03:48:49.117Z,5.76
2019-01-26T03:49:49.124Z,5.79
2019-01-26T03:50:49.134Z,5.81
2019-01-26T03:51:49.152Z,5.76
2019-01-26T03:52:49.158Z,5.78
2019-01-26T03:53:49.161Z,5.78
2019-01-26T03:54:49.175Z,5.74
2019-01-26T03:55:49.182Z,5.74
2019-01-26T03:56:49.194Z,5.72
2019-01-26T03:57:49.216Z,5.79
2019-01-26T03:58:49.212Z,5.75
2019-01-26T03:59:49.435Z,5.78
2019-01-26T04:00:49.233Z,5.75
2019-01-26T04:01:49.244Z,5.82
2019-01-26T04:02:49.249Z,5.79
2019-01-26T04:03:49.262Z,5.71
2019-01-26T04:04:49.272Z,5.82
2019-01-26T04:05:49.281Z,5.82
2019-01-26T04:06:49.290Z,5.72
2019-01-26T04:07:49.304Z,5.82
2019-01-26T04:08:49.309Z,5.85
2019-01-26T04:09:49.320Z,5.76
2019-01-26T04:10:49.328Z,5.85
2019-01-26T04:11:49.343Z,5.85
2019-01-26T04:12:49.350Z,5.79
2019-01-26T04:13:49.358Z,5.79
2019-01-26T04:14:49.369Z,5.91
2019-01-26T04:15:49.380Z,5.97
2019-01-26T04:16:49.391Z,5.90
2019-01-26T04:17:49.405Z,5.96
2019-01-26T04:18:49.408Z,5.90
2019-01-26T04:19:49.416Z,5.94
2019-01-26T04:20:49.426Z,5.99
2019-01-26T04:21:49.435Z,6.01
2019-01-26T04:22:49.448Z,6.06
2019-01-26T04:23:49.453Z,5.97
2019-01-26T04:24:49.479Z,5.97
2019-01-26T04:25:49.477Z,5.99
2019-01-26T04:26:49.486Z,5.96
2019-01-26T04:27:49.498Z,5.93
2019-01-26T04:28:49.508Z,5.94
2019-01-26T04:29:49.516Z,5.94
2019-01-26T04:30:49.524Z,5.97
2019-01-26T04:31:49.542Z,6.03
2019-01-26T04:32:49.539Z,6.00
2019-01-26T04:33:49.553Z,6.12
2019-01-26T04:34:49.564Z,6.04
2019-01-26T04:35:49.572Z,6.04
2019-01-26T04:36:49.580Z,6.01
2019-01-26T04:37:49.593Z,6.00
2019-01-26T04:38:49.599Z,6.03
2019-01-26T04:39:49.610Z,6.06
2019-01-26T04:40:49.618Z,6.12
2019-01-26T04:41:49.631Z,5.97
2019-01-26T04:42:49.642Z,6.08
2019-01-26T04:43:49.654Z,6.11
2019-01-26T04:44:49.663Z,6.11
2019-01-26T04:45:49.676Z,6.03
2019-01-26T04:46:49.682Z,6.06
2019-01-26T04:47:49.693Z,6.12
2019-01-26T04:48:49.703Z,6.12
2019-01-26T04:49:49.709Z,6.14
2019-01-26T04:50:49.727Z,6.14
2019-01-26T04:51:49.729Z,6.15
2019-01-26T04:52:49.742Z,6.14
2019-01-26T04:53:49.783Z,6.11
2019-01-26T04:54:49.756Z,6.03
2019-01-26T04:55:49.788Z,6.11
2019-01-26T04:56:49.785Z,6.12
2019-01-26T04:57:49.784Z,6.18
2019-01-26T04:58:49.793Z,6.15
2019-01-26T04:59:49.812Z,6.15
2019-01-26T05:00:49.840Z,6.18
2019-01-26T05:01:49.824Z,6.08
2019-01-26T05:02:49.832Z,6.19
2019-01-26T05:03:49.845Z,6.15
2019-01-26T05:04:49.850Z,6.21
2019-01-26T05:05:49.865Z,6.18
2019-01-26T05:06:49.876Z,6.21
2019-01-26T05:07:49.892Z,6.15
2019-01-26T05:08:49.893Z,6.30
2019-01-26T05:09:49.903Z,6.15
2019-01-26T05:10:49.918Z,6.17
2019-01-26T05:11:49.923Z,6.18
2019-01-26T05:12:49.948Z,6.18
2019-01-26T05:13:49.943Z,6.19
2019-01-26T05:14:49.953Z,6.17
2019-01-26T05:15:49.961Z,6.19
2019-01-26T05:16:49.972Z,6.14
2019-01-26T05:17:49.983Z,6.17
2019-01-26T05:18:49.991Z,6.15
2019-01-26T05:19:50.002Z,6.17
2019-01-26T05:20:50.011Z,6.18
2019-01-26T05:21:50.027Z,6.17
2019-01-26T05:22:50.032Z,6.15
2019-01-26T05:23:50.041Z,6.27
2019-01-26T05:24:50.051Z,6.34
2019-01-26T05:25:50.061Z,6.22
2019-01-26T05:26:50.071Z,6.27
2019-01-26T05:27:50.083Z,6.30
2019-01-26T05:28:50.088Z,6.22
2019-01-26T05:29:50.102Z,6.31
2019-01-26T05:30:50.413Z,6.22
2019-01-26T05:31:50.146Z,6.27
2019-01-26T05:32:50.135Z,6.27
2019-01-26T05:33:50.141Z,6.27
2019-01-26T05:34:50.176Z,6.31
2019-01-26T05:35:50.159Z,6.34
2019-01-26T05:36:50.173Z,6.31
2019-01-26T05:37:50.183Z,6.25
2019-01-26T05:38:50.203Z,6.27
2019-01-26T05:39:50.201Z,6.19
2019-01-26T05:40:50.206Z,6.25
2019-01-26T05:41:50.218Z,6.33
2019-01-26T05:42:50.234Z,6.25
2019-01-26T05:43:50.242Z,6.34
2019-01-26T05:44:50.251Z,6.28
2019-01-26T05:45:50.258Z,6.28
2019-01-26T05:46:50.266Z,6.25
2019-01-26T05:47:50.282Z,6.34
2019-01-26T05:48:50.296Z,6.40
2019-01-26T05:49:50.311Z,6.37
2019-01-26T05:50:50.316Z,6.37
2019-01-26T05:51:50.319Z,6.38
2019-01-26T05:52:50.329Z,6.43
2019-01-26T05:53:50.340Z,6.33
2019-01-26T05:54:50.362Z,6.40
2019-01-26T05:55:50.358Z,6.46
2019-01-26T05:56:50.373Z,6.40
2019-01-26T05:57:50.384Z,6.49
2019-01-26T05:58:50.406Z,6.38
2019-01-26T05:59:50.399Z,6.40
2019-01-26T06:00:50.408Z,6.43
2019-01-26T06:01:50.424Z,6.40
2019-01-26T06:02:50.432Z,6.49
2019-01-26T06:03:50.439Z,6.55
2019-01-26T06:04:50.447Z,6.55
2019-01-26T06:05:50.462Z,6.48
2019-01-26T06:06:50.471Z,6.48
2019-01-26T06:07:50.482Z,6.43
2019-01-26T06:08:50.489Z,6.37
2019-01-26T06:09:50.497Z,6.44
2019-01-26T06:10:50.508Z,6.49
2019-01-26T06:11:50.524Z,6.52
2019-01-26T06:12:50.531Z,6.52
2019-01-26T06:13:50.543Z,6.58
2019-01-26T06:14:50.551Z,6.52
2019-01-26T06:15:50.562Z,6.59
2019-01-26T06:16:50.569Z,6.58
2019-01-26T06:17:54.946Z,6.49
2019-01-26T06:18:50.591Z,6.52
2019-01-26T06:19:50.606Z,6.52
2019-01-26T06:20:50.608Z,6.43
2019-01-26T06:21:50.623Z,6.54
2019-01-26T06:22:50.665Z,6.43
2019-01-26T06:23:50.647Z,6.44
2019-01-26T06:24:50.649Z,6.41
2019-01-26T06:25:50.658Z,6.41
2019-01-26T06:26:50.671Z,6.54
2019-01-26T06:27:50.682Z,6.56
2019-01-26T06:28:50.688Z,6.49
2019-01-26T06:29:50.701Z,6.49
2019-01-26T06:30:50.731Z,6.52
2019-01-26T06:31:50.722Z,6.40
2019-01-26T06:32:50.732Z,6.59
2019-01-26T06:33:50.743Z,6.49
2019-01-26T06:34:50.749Z,6.51
2019-01-26T06:35:50.759Z,6.44
2019-01-26T06:36:50.770Z,6.46
2019-01-26T06:37:50.778Z,6.46
2019-01-26T06:38:50.791Z,6.44
2019-01-26T06:39:50.806Z,6.49
2019-01-26T06:40:50.810Z,6.55
2019-01-26T06:41:50.822Z,6.48
2019-01-26T06:42:50.835Z,6.55
2019-01-26T06:43:50.842Z,6.55
2019-01-26T06:44:50.848Z,6.58
2019-01-26T06:45:50.860Z,6.52
2019-01-26T06:46:50.872Z,6.54
2019-01-26T06:47:50.884Z,6.55
2019-01-26T06:48:50.891Z,6.56
2019-01-26T06:49:50.910Z,6.54
2019-01-26T06:50:50.911Z,6.54
2019-01-26T06:51:50.923Z,6.64
2019-01-26T06:52:50.928Z,6.64
2019-01-26T06:53:50.940Z,6.55
2019-01-26T06:54:50.961Z,6.55
2019-01-26T06:55:50.962Z,6.55
2019-01-26T06:56:50.979Z,6.52
2019-01-26T06:57:50.982Z,6.52
2019-01-26T06:58:50.994Z,6.59
2019-01-26T06:59:51.008Z,6.54
2019-01-26T07:00:51.010Z,6.56
2019-01-26T07:01:51.028Z,6.67
2019-01-26T07:02:51.045Z,6.61
2019-01-26T07:03:51.041Z,6.55
2019-01-26T07:04:51.054Z,6.56
2019-01-26T07:05:51.063Z,6.52
2019-01-26T07:06:51.075Z,6.55
2019-01-26T07:07:51.084Z,6.54
2019-01-26T07:08:51.094Z,6.61
2019-01-26T07:09:51.103Z,6.54
2019-01-26T07:10:51.117Z,6.56
2019-01-26T07:11:51.131Z,6.62
2019-01-26T07:12:51.134Z,6.66
2019-01-26T07:13:51.143Z,6.64
2019-01-26T07:14:51.158Z,6.58
2019-01-26T07:15:51.164Z,6.69
2019-01-26T07:16:51.174Z,6.69
2019-01-26T07:17:51.183Z,6.62
2019-01-26T07:18:51.196Z,6.58
2019-01-26T07:19:51.209Z,6.66
2019-01-26T07:20:51.240Z,6.66
2019-01-26T07:21:51.229Z,6.67
2019-01-26T07:22:51.236Z,6.69
2019-01-26T07:23:51.247Z,6.62
2019-01-26T07:24:51.258Z,6.61
2019-01-26T07:25:51.262Z,6.64
2019-01-26T07:26:51.274Z,6.69
2019-01-26T07:27:51.284Z,6.67
2019-01-26T07:28:51.295Z,6.66
2019-01-26T07:29:51.306Z,6.71
2019-01-26T07:30:51.314Z,6.77
2019-01-26T07:31:51.329Z,6.77
2019-01-26T07:32:51.336Z,6.73
2019-01-26T07:33:51.349Z,6.66
2019-01-26T07:34:51.359Z,6.74
2019-01-26T07:35:51.364Z,6.66
2019-01-26T07:36:51.378Z,6.79
2019-01-26T07:37:51.384Z,6.73
2019-01-26T07:38:51.400Z,6.70
2019-01-26T07:39:51.406Z,6.74
2019-01-26T07:40:51.417Z,6.85
2019-01-26T07:41:51.429Z,6.87
2019-01-26T07:42:51.438Z,6.77
2019-01-26T07:43:51.448Z,6.73
2019-01-26T07:44:51.457Z,6.70
2019-01-26T07:45:51.471Z,6.80
2019-01-26T07:46:51.488Z,6.79
2019-01-26T07:47:51.486Z,6.76
2019-01-26T07:48:51.495Z,6.81
2019-01-26T07:49:51.509Z,6.89
2019-01-26T07:50:51.517Z,6.79
2019-01-26T07:51:51.531Z,6.89
2019-01-26T07:52:51.540Z,6.85
2019-01-26T07:53:51.557Z,6.88
2019-01-26T07:54:51.563Z,6.87
2019-01-26T07:55:51.574Z,6.92
2019-01-26T07:56:51.580Z,6.89
2019-01-26T07:57:51.590Z,6.85
2019-01-26T07:58:51.609Z,6.81
2019-01-26T07:59:51.613Z,6.84
2019-01-26T08:00:51.623Z,6.87
2019-01-26T08:01:51.636Z,6.88
2019-01-26T08:02:51.641Z,6.87
2019-01-26T08:03:51.651Z,6.87
2019-01-26T08:04:51.664Z,6.91
2019-01-26T08:05:51.670Z,6.89
2019-01-26T08:06:51.691Z,6.87
2019-01-26T08:07:51.690Z,6.85
2019-01-26T08:08:51.705Z,6.85
2019-01-26T08:09:51.712Z,6.85
2019-01-26T08:10:51.722Z,6.79
2019-01-26T08:11:51.734Z,6.88
2019-01-26T08:12:51.744Z,6.76
2019-01-26T08:13:51.768Z,6.84
2019-01-26T08:14:51.765Z,6.87
2019-01-26T08:15:51.771Z,6.81
2019-01-26T08:16:51.785Z,6.85
2019-01-26T08:17:51.793Z,6.85
2019-01-26T08:18:51.805Z,6.79
2019-01-26T08:19:51.820Z,6.84
2019-01-26T08:20:51.825Z,6.73
2019-01-26T08:21:51.831Z,6.79
2019-01-26T08:22:51.847Z,6.89
2019-01-26T08:23:51.855Z,6.85
2019-01-26T08:25:51.878Z,6.92
2019-01-26T08:26:51.886Z,6.88
2019-01-26T08:27:51.896Z,6.84
2019-01-26T08:28:51.907Z,6.89
2019-01-26T08:29:51.914Z,6.94
2019-01-26T08:30:51.928Z,6.79
2019-01-26T08:31:51.938Z,6.79
2019-01-26T08:32:51.948Z,6.92
2019-01-26T08:33:51.958Z,6.94
2019-01-26T08:34:51.967Z,6.91
2019-01-26T08:35:51.978Z,6.84
2019-01-26T08:36:51.985Z,6.76
2019-01-26T08:37:51.996Z,6.73
2019-01-26T08:38:52.009Z,6.77
2019-01-26T08:39:52.027Z,6.87
2019-01-26T08:40:52.027Z,6.87
2019-01-26T08:41:52.040Z,6.92
2019-01-26T08:42:52.051Z,6.84
2019-01-26T08:43:52.062Z,6.89
2019-01-26T08:44:52.070Z,6.85
2019-01-26T08:45:52.078Z,6.87
2019-01-26T08:46:52.093Z,6.88
2019-01-26T08:47:52.105Z,6.87
2019-01-26T08:48:52.109Z,6.88
2019-01-26T08:49:52.124Z,6.94
2019-01-26T08:50:52.141Z,6.87
2019-01-26T08:51:52.143Z,6.91
2019-01-26T08:52:52.155Z,6.79
2019-01-26T08:53:52.172Z,6.88
2019-01-26T08:54:52.225Z,6.88
2019-01-26T08:55:52.183Z,6.85
2019-01-26T08:56:52.212Z,6.94
2019-01-26T08:57:52.200Z,6.88
2019-01-26T08:58:52.211Z,6.89
2019-01-26T08:59:52.225Z,6.87
2019-01-26T09:00:52.241Z,6.87
2019-01-26T09:01:52.244Z,6.85
2019-01-26T09:02:52.256Z,6.89
2019-01-26T09:03:52.265Z,6.88
2019-01-26T09:04:52.278Z,6.92
2019-01-26T09:05:52.284Z,7.02
2019-01-26T09:06:52.293Z,6.94
2019-01-26T09:07:52.308Z,6.95
2019-01-26T09:08:52.317Z,6.91
2019-01-26T09:09:52.326Z,6.94
2019-01-26T09:10:52.333Z,6.92
2019-01-26T09:11:52.348Z,6.92
2019-01-26T09:12:52.354Z,6.89
2019-01-26T09:13:52.373Z,6.85
2019-01-26T09:14:52.378Z,6.87
2019-01-26T09:15:52.400Z,6.94
2019-01-26T09:16:52.401Z,6.85
2019-01-26T09:17:52.411Z,6.91
2019-01-26T09:18:52.425Z,6.91
2019-01-26T09:19:52.438Z,6.97
2019-01-26T09:20:52.438Z,6.92
2019-01-26T09:21:52.449Z,6.89
2019-01-26T09:22:52.460Z,6.92
2019-01-26T09:23:52.472Z,6.94
2019-01-26T09:24:52.476Z,6.95
2019-01-26T09:25:52.500Z,6.99
2019-01-26T09:26:52.704Z,6.89
2019-01-26T09:27:52.514Z,6.85
2019-01-26T09:28:52.526Z,6.91
2019-01-26T09:29:52.530Z,7.02
2019-01-26T09:30:52.541Z,7.02
2019-01-26T09:31:52.553Z,6.99
2019-01-26T09:32:52.561Z,6.98
2019-01-26T09:33:52.572Z,6.92
2019-01-26T09:34:52.584Z,7.02
2019-01-26T09:35:52.598Z,6.95
2019-01-26T09:36:52.602Z,7.03
2019-01-26T09:37:52.614Z,6.92
2019-01-26T09:38:52.633Z,6.98
2019-01-26T09:39:52.669Z,6.98
2019-01-26T09:40:52.645Z,6.94
2019-01-26T09:41:52.658Z,6.98
2019-01-26T09:42:52.667Z,7.05
2019-01-26T09:43:52.674Z,6.99
2019-01-26T09:44:52.690Z,6.95
2019-01-26T09:45:52.699Z,6.91
2019-01-26T09:46:52.715Z,6.94
2019-01-26T09:47:52.723Z,7.02
2019-01-26T09:48:52.734Z,7.07
2019-01-26T09:49:52.737Z,7.03
2019-01-26T09:50:52.748Z,6.99
2019-01-26T09:51:52.761Z,7.05
2019-01-26T09:52:52.775Z,7.06
2019-01-26T09:53:52.785Z,6.98
2019-01-26T09:54:52.793Z,7.02
2019-01-26T09:55:52.802Z,6.95
2019-01-26T09:56:52.806Z,7.03
2019-01-26T09:57:52.815Z,7.06
2019-01-26T09:58:52.831Z,7.10
2019-01-26T09:59:52.835Z,7.05
2019-01-26T10:00:52.849Z,7.03
2019-01-26T10:01:52.858Z,7.03
2019-01-26T10:02:52.873Z,6.99
2019-01-26T10:03:52.881Z,6.98
2019-01-26T10:04:52.888Z,7.02
2019-01-26T10:05:52.901Z,6.95
2019-01-26T10:06:52.916Z,7.05
2019-01-26T10:07:52.919Z,7.03
2019-01-26T10:08:52.930Z,7.09
2019-01-26T10:09:52.959Z,7.13
2019-01-26T10:10:52.953Z,7.06
2019-01-26T10:11:52.969Z,7.07
2019-01-26T10:12:52.974Z,7.06
2019-01-26T10:13:52.989Z,7.12
2019-01-26T10:14:53.002Z,7.03
2019-01-26T10:15:53.006Z,6.99
2019-01-26T10:16:53.031Z,7.03
2019-01-26T10:17:53.033Z,6.99
2019-01-26T10:18:53.672Z,7.02
2019-01-26T10:19:53.047Z,7.10
2019-01-26T10:20:53.060Z,7.03
2019-01-26T10:21:53.066Z,6.98
2019-01-26T10:22:53.079Z,7.13
2019-01-26T10:23:53.095Z,7.10
2019-01-26T10:24:53.097Z,7.15
2019-01-26T10:25:53.112Z,7.13
2019-01-26T10:26:53.122Z,7.09
2019-01-26T10:27:53.130Z,7.12
2019-01-26T10:28:53.140Z,7.15
2019-01-26T10:29:53.151Z,7.15
2019-01-26T10:30:53.160Z,7.09
2019-01-26T10:31:53.174Z,7.05
2019-01-26T10:32:53.186Z,7.09
2019-01-26T10:33:53.196Z,7.05
2019-01-26T10:34:53.203Z,7.13
2019-01-26T10:35:53.218Z,7.12
2019-01-26T10:36:53.226Z,7.13
2019-01-26T10:37:53.234Z,7.15
2019-01-26T10:38:53.247Z,7.09
2019-01-26T10:39:53.257Z,7.03
2019-01-26T10:40:53.265Z,7.07
2019-01-26T10:41:53.290Z,7.02
2019-01-26T10:42:53.293Z,7.06
2019-01-26T10:43:53.353Z,7.15
2019-01-26T10:44:53.314Z,7.06
2019-01-26T10:45:53.319Z,7.05
2019-01-26T10:46:53.329Z,7.06
2019-01-26T10:47:53.347Z,7.03
2019-01-26T10:48:53.357Z,7.05
2019-01-26T10:49:53.360Z,7.05
2019-01-26T10:50:53.374Z,7.02
2019-01-26T10:51:53.383Z,7.03
2019-01-26T10:52:53.393Z,7.12
2019-01-26T10:53:53.404Z,7.13
2019-01-26T10:54:53.426Z,6.99
2019-01-26T10:55:53.430Z,7.05
2019-01-26T10:56:53.436Z,7.05
2019-01-26T10:57:53.450Z,7.05
2019-01-26T10:58:53.457Z,7.09
2019-01-26T10:59:53.465Z,7.12
2019-01-26T11:00:53.477Z,7.13
2019-01-26T11:01:53.490Z,7.12
2019-01-26T11:02:53.499Z,7.12
2019-01-26T11:03:53.511Z,7.06
2019-01-26T11:04:53.521Z,7.06
2019-01-26T11:05:53.531Z,7.02
2019-01-26T11:06:53.541Z,6.98
2019-01-26T11:07:53.552Z,7.02
2019-01-26T11:08:53.562Z,6.98
2019-01-26T11:09:53.574Z,7.06
2019-01-26T11:10:53.587Z,6.99
2019-01-26T11:11:53.599Z,7.05
2019-01-26T11:12:53.603Z,6.99
2019-01-26T11:13:53.617Z,6.94
2019-01-26T11:14:53.623Z,7.02
2019-01-26T11:15:53.639Z,7.02
2019-01-26T11:16:53.645Z,7.05
2019-01-26T11:17:53.660Z,7.06
2019-01-26T11:18:53.672Z,7.06
2019-01-26T11:19:53.675Z,7.02
2019-01-26T11:20:53.692Z,7.02
2019-01-26T11:21:53.698Z,7.03
2019-01-26T11:22:53.708Z,7.07
2019-01-26T11:23:53.722Z,7.07
2019-01-26T11:24:53.728Z,7.02
2019-01-26T11:25:53.738Z,7.03
2019-01-26T11:26:53.755Z,6.98
2019-01-26T11:27:53.761Z,6.99
2019-01-26T11:28:53.777Z,7.05
2019-01-26T11:29:53.782Z,6.99
2019-01-26T11:30:53.794Z,6.98
2019-01-26T11:31:53.812Z,7.05
2019-01-26T11:32:53.816Z,7.02
2019-01-26T11:33:53.826Z,7.05
2019-01-26T11:34:53.838Z,7.02
2019-01-26T11:35:53.854Z,7.10
2019-01-26T11:36:54.094Z,7.05
2019-01-26T11:37:53.974Z,6.99
2019-01-26T11:38:53.876Z,7.06
2019-01-26T11:39:53.888Z,7.05
2019-01-26T11:40:56.848Z,7.15
2019-01-26T11:41:53.910Z,7.13
2019-01-26T11:42:53.917Z,7.16
2019-01-26T11:43:53.932Z,7.16
2019-01-26T11:44:53.942Z,7.13
2019-01-26T11:45:53.956Z,7.15
2019-01-26T11:46:54.547Z,7.13
2019-01-26T11:47:53.976Z,7.12
2019-01-26T11:48:53.999Z,7.09
2019-01-26T11:49:53.994Z,7.10
2019-01-26T11:50:54.003Z,7.05
2019-01-26T11:51:54.015Z,7.12
2019-01-26T11:52:54.029Z,7.23
2019-01-26T11:53:54.036Z,7.17
2019-01-26T11:54:54.049Z,7.25
2019-01-26T11:55:54.060Z,7.17
2019-01-26T11:56:54.069Z,7.20
2019-01-26T11:57:54.077Z,7.23
2019-01-26T11:58:54.097Z,7.12
2019-01-26T11:59:54.101Z,7.21
2019-01-26T12:00:59.288Z,7.10
2019-01-26T12:01:54.131Z,7.12
2019-01-26T12:02:54.135Z,7.23
2019-01-26T12:03:54.149Z,7.23
2019-01-26T12:04:54.159Z,7.17
2019-01-26T12:05:54.163Z,7.05
2019-01-26T12:06:54.177Z,7.15
2019-01-26T12:07:54.187Z,7.16
2019-01-26T12:08:54.194Z,7.12
2019-01-26T12:09:54.212Z,7.13
2019-01-26T12:10:54.219Z,7.25
2019-01-26T12:11:54.230Z,7.27
2019-01-26T12:12:54.241Z,7.25
2019-01-26T12:13:54.249Z,7.15
2019-01-26T12:14:54.263Z,7.10
2019-01-26T12:15:54.274Z,7.21
2019-01-26T12:16:54.281Z,7.12
2019-01-26T12:17:54.299Z,7.21
2019-01-26T12:18:54.348Z,7.15
2019-01-26T12:19:54.317Z,7.23
2019-01-26T12:20:54.326Z,7.15
2019-01-26T12:21:54.338Z,7.17
2019-01-26T12:22:54.352Z,7.17
2019-01-26T12:23:54.358Z,7.07
2019-01-26T12:24:54.366Z,7.24
2019-01-26T12:25:54.385Z,7.12
2019-01-26T12:26:54.391Z,7.16
2019-01-26T12:27:54.398Z,7.21
2019-01-26T12:28:54.412Z,7.10
2019-01-26T12:29:54.423Z,7.15
2019-01-26T12:30:54.433Z,7.13
2019-01-26T12:31:54.443Z,7.10
2019-01-26T12:32:54.458Z,7.13
2019-01-26T12:33:54.466Z,7.15
2019-01-26T12:34:54.478Z,7.13
2019-01-26T12:35:54.487Z,7.20
2019-01-26T12:36:54.495Z,7.20
2019-01-26T12:37:54.508Z,7.27
2019-01-26T12:38:54.518Z,7.10
2019-01-26T12:39:54.534Z,7.13
2019-01-26T12:40:54.543Z,7.16
2019-01-26T12:41:54.551Z,7.12
2019-01-26T12:42:54.559Z,7.23
2019-01-26T12:43:54.588Z,7.21
2019-01-26T12:44:54.580Z,7.24
2019-01-26T12:45:54.592Z,7.06
2019-01-26T12:46:54.600Z,7.05
2019-01-26T12:47:54.622Z,7.12
2019-01-26T12:48:54.623Z,7.15
2019-01-26T12:49:54.633Z,7.15
2019-01-26T12:50:54.645Z,7.13
2019-01-26T12:51:54.655Z,7.16
2019-01-26T12:52:54.669Z,7.05
2019-01-26T12:53:54.678Z,7.15
2019-01-26T12:54:54.700Z,7.17
2019-01-26T12:55:54.705Z,7.20
2019-01-26T12:56:54.710Z,7.17
2019-01-26T12:57:54.720Z,7.24
2019-01-26T12:58:54.731Z,7.10
2019-01-26T12:59:54.742Z,7.12
2019-01-26T13:00:54.752Z,7.13
2019-01-26T13:01:54.769Z,7.06
2019-01-26T13:02:54.820Z,7.23
2019-01-26T13:03:54.781Z,7.21
2019-01-26T13:04:54.796Z,7.25
2019-01-26T13:05:54.805Z,7.23
2019-01-26T13:06:54.818Z,7.28
2019-01-26T13:07:54.834Z,7.17
2019-01-26T13:08:54.843Z,7.17
2019-01-26T13:09:54.847Z,7.20
2019-01-26T13:10:54.857Z,7.25
2019-01-26T13:11:54.875Z,7.21
2019-01-26T13:12:54.879Z,7.21
2019-01-26T13:13:54.897Z,7.20
2019-01-26T13:14:54.901Z,7.21
2019-01-26T13:15:54.911Z,7.25
2019-01-26T13:16:54.921Z,7.20
2019-01-26T13:17:54.936Z,7.23
2019-01-26T13:18:54.984Z,7.20
2019-01-26T13:19:54.951Z,7.28